sensor_id;sensor_type;location;lat;lon;timestamp;pressure;altitude;pressure_sealevel;temperature;humidity
79006;BME280;69202;45.498;-73.582;2023-12-20T00:01:56;101700.88;;;5.99;60.55
79006;BME280;69202;45.498;-73.582;2023-12-20T00:04:22;101708.78;;;5.82;57.90
79006;BME280;69202;45.498;-73.582;2023-12-20T00:06:48;101701.75;;;5.51;55.64
79006;BME280;69202;45.498;-73.582;2023-12-20T00:09:13;101708.25;;;5.39;57.96
79006;BME280;69202;45.498;-73.582;2023-12-20T00:11:39;101703.88;;;5.48;59.96
79006;BME280;69202;45.498;-73.582;2023-12-20T00:14:07;101704.72;;;5.77;60.65
79006;BME280;69202;45.498;-73.582;2023-12-20T00:16:33;101725.03;;;5.99;61.74
79006;BME280;69202;45.498;-73.582;2023-12-20T00:18:59;101729.56;;;5.99;58.77
79006;BME280;69202;45.498;-73.582;2023-12-20T00:21:25;101726.88;;;5.79;58.27
79006;BME280;69202;45.498;-73.582;2023-12-20T00:23:51;101742.69;;;5.83;59.50
79006;BME280;69202;45.498;-73.582;2023-12-20T00:26:17;101746.34;;;6.11;61.60
79006;BME280;69202;45.498;-73.582;2023-12-20T00:28:42;101736.34;;;5.84;57.52
79006;BME280;69202;45.498;-73.582;2023-12-20T00:31:08;101744.53;;;5.72;60.10
79006;BME280;69202;45.498;-73.582;2023-12-20T00:33:34;101753.88;;;5.97;59.73
79006;BME280;69202;45.498;-73.582;2023-12-20T00:36:00;101758.66;;;5.94;59.08
79006;BME280;69202;45.498;-73.582;2023-12-20T00:38:26;101769.41;;;5.74;57.27
79006;BME280;69202;45.498;-73.582;2023-12-20T00:40:52;101757.53;;;5.67;59.60
79006;BME280;69202;45.498;-73.582;2023-12-20T00:43:18;101775.06;;;5.91;59.85
79006;BME280;69202;45.498;-73.582;2023-12-20T00:45:44;101776.72;;;5.72;58.63
79006;BME280;69202;45.498;-73.582;2023-12-20T00:48:09;101779.56;;;6.10;62.08
79006;BME280;69202;45.498;-73.582;2023-12-20T00:50:35;101779.16;;;5.95;56.83
79006;BME280;69202;45.498;-73.582;2023-12-20T00:53:01;101801.00;;;5.51;54.87
79006;BME280;69202;45.498;-73.582;2023-12-20T00:55:27;101803.38;;;5.26;53.19
79006;BME280;69202;45.498;-73.582;2023-12-20T00:57:53;101804.19;;;5.07;54.72
79006;BME280;69202;45.498;-73.582;2023-12-20T01:00:19;101806.53;;;4.90;53.92
79006;BME280;69202;45.498;-73.582;2023-12-20T01:02:45;101776.94;;;4.61;54.85
79006;BME280;69202;45.498;-73.582;2023-12-20T01:05:14;101812.91;;;4.69;55.51
79006;BME280;69202;45.498;-73.582;2023-12-20T01:07:40;101834.28;;;4.80;58.36
79006;BME280;69202;45.498;-73.582;2023-12-20T01:10:06;101847.16;;;4.96;57.66
79006;BME280;69202;45.498;-73.582;2023-12-20T01:12:32;101851.63;;;4.85;55.94
79006;BME280;69202;45.498;-73.582;2023-12-20T01:14:58;101851.53;;;4.66;54.50
79006;BME280;69202;45.498;-73.582;2023-12-20T01:17:25;101837.59;;;4.42;54.58
79006;BME280;69202;45.498;-73.582;2023-12-20T01:19:51;101861.56;;;4.43;55.03
79006;BME280;69202;45.498;-73.582;2023-12-20T01:22:16;101870.94;;;4.38;55.02
79006;BME280;69202;45.498;-73.582;2023-12-20T01:24:42;101873.06;;;4.34;54.77
79006;BME280;69202;45.498;-73.582;2023-12-20T01:27:09;101877.34;;;4.25;54.39
79006;BME280;69202;45.498;-73.582;2023-12-20T01:29:35;101879.03;;;4.26;55.49
79006;BME280;69202;45.498;-73.582;2023-12-20T01:32:01;101878.19;;;4.26;57.61
79006;BME280;69202;45.498;-73.582;2023-12-20T01:34:27;101888.13;;;4.56;61.32
79006;BME280;69202;45.498;-73.582;2023-12-20T01:36:53;101875.91;;;4.63;60.34
79006;BME280;69202;45.498;-73.582;2023-12-20T01:39:19;101886.72;;;4.52;56.85
79006;BME280;69202;45.498;-73.582;2023-12-20T01:41:45;101888.28;;;4.33;54.75
79006;BME280;69202;45.498;-73.582;2023-12-20T01:44:11;101861.13;;;4.17;57.56
79006;BME280;69202;45.498;-73.582;2023-12-20T01:46:37;101877.50;;;4.24;55.60
79006;BME280;69202;45.498;-73.582;2023-12-20T01:49:03;101891.31;;;4.08;54.08
79006;BME280;69202;45.498;-73.582;2023-12-20T01:51:29;101912.50;;;4.00;52.91
79006;BME280;69202;45.498;-73.582;2023-12-20T01:53:57;101912.56;;;3.89;53.05
79006;BME280;69202;45.498;-73.582;2023-12-20T01:56:24;101907.22;;;3.89;53.78
79006;BME280;69202;45.498;-73.582;2023-12-20T01:58:51;101907.66;;;3.94;55.57
79006;BME280;69202;45.498;-73.582;2023-12-20T02:01:17;101874.53;;;3.74;54.77
79006;BME280;69202;45.498;-73.582;2023-12-20T02:03:45;101905.47;;;3.99;56.66
79006;BME280;69202;45.498;-73.582;2023-12-20T02:06:11;101908.72;;;4.02;57.76
79006;BME280;69202;45.498;-73.582;2023-12-20T02:08:37;101896.72;;;3.97;55.88
79006;BME280;69202;45.498;-73.582;2023-12-20T02:11:03;101916.03;;;4.00;56.66
79006;BME280;69202;45.498;-73.582;2023-12-20T02:13:30;101909.94;;;4.10;57.66
79006;BME280;69202;45.498;-73.582;2023-12-20T02:15:56;101913.06;;;4.15;57.57
79006;BME280;69202;45.498;-73.582;2023-12-20T02:18:22;101908.16;;;3.99;55.79
79006;BME280;69202;45.498;-73.582;2023-12-20T02:20:48;101921.13;;;4.03;57.16
79006;BME280;69202;45.498;-73.582;2023-12-20T02:23:14;101906.94;;;3.92;54.72
79006;BME280;69202;45.498;-73.582;2023-12-20T02:25:40;101924.38;;;3.75;54.28
79006;BME280;69202;45.498;-73.582;2023-12-20T02:28:06;101926.59;;;3.70;54.10
79006;BME280;69202;45.498;-73.582;2023-12-20T02:30:32;101935.22;;;3.62;53.56
79006;BME280;69202;45.498;-73.582;2023-12-20T02:32:59;101945.91;;;3.62;55.83
79006;BME280;69202;45.498;-73.582;2023-12-20T02:35:26;101941.50;;;3.84;58.63
79006;BME280;69202;45.498;-73.582;2023-12-20T02:37:52;101940.56;;;3.62;55.60
79006;BME280;69202;45.498;-73.582;2023-12-20T02:40:18;101939.50;;;3.42;54.28
79006;BME280;69202;45.498;-73.582;2023-12-20T02:42:44;101949.84;;;3.36;53.56
79006;BME280;69202;45.498;-73.582;2023-12-20T02:45:10;101958.09;;;3.22;53.37
79006;BME280;69202;45.498;-73.582;2023-12-20T02:47:36;101940.00;;;3.03;54.59
79006;BME280;69202;45.498;-73.582;2023-12-20T02:50:02;101965.88;;;3.36;59.71
79006;BME280;69202;45.498;-73.582;2023-12-20T02:52:29;101965.97;;;3.68;60.97
79006;BME280;69202;45.498;-73.582;2023-12-20T02:54:54;101963.44;;;3.55;57.99
79006;BME280;69202;45.498;-73.582;2023-12-20T02:57:20;101958.47;;;3.28;56.13
79006;BME280;69202;45.498;-73.582;2023-12-20T02:59:46;101947.19;;;3.13;54.34
79006;BME280;69202;45.498;-73.582;2023-12-20T03:02:12;101941.47;;;2.96;53.92
79006;BME280;69202;45.498;-73.582;2023-12-20T03:04:38;101961.59;;;2.88;53.45
79006;BME280;69202;45.498;-73.582;2023-12-20T03:07:04;101906.69;;;2.51;53.85
79006;BME280;69202;45.498;-73.582;2023-12-20T03:09:30;101962.09;;;2.82;54.87
79006;BME280;69202;45.498;-73.582;2023-12-20T03:11:56;101942.75;;;2.79;55.78
79006;BME280;69202;45.498;-73.582;2023-12-20T03:14:21;101951.63;;;2.79;54.81
79006;BME280;69202;45.498;-73.582;2023-12-20T03:16:50;101935.44;;;2.70;56.37
79006;BME280;69202;45.498;-73.582;2023-12-20T03:19:19;101944.69;;;2.66;54.79
79006;BME280;69202;45.498;-73.582;2023-12-20T03:21:45;101934.09;;;2.53;53.91
79006;BME280;69202;45.498;-73.582;2023-12-20T03:24:11;101968.56;;;2.56;53.18
79006;BME280;69202;45.498;-73.582;2023-12-20T03:26:37;101984.53;;;2.45;53.34
79006;BME280;69202;45.498;-73.582;2023-12-20T03:29:03;101980.41;;;2.41;53.65
79006;BME280;69202;45.498;-73.582;2023-12-20T03:31:29;101978.19;;;2.35;53.17
79006;BME280;69202;45.498;-73.582;2023-12-20T03:33:55;101986.44;;;2.31;53.15
79006;BME280;69202;45.498;-73.582;2023-12-20T03:36:21;101988.38;;;2.29;53.47
79006;BME280;69202;45.498;-73.582;2023-12-20T03:38:47;101988.69;;;2.25;54.15
79006;BME280;69202;45.498;-73.582;2023-12-20T03:41:13;101995.84;;;2.24;54.64
79006;BME280;69202;45.498;-73.582;2023-12-20T03:43:39;102010.41;;;2.20;53.73
79006;BME280;69202;45.498;-73.582;2023-12-20T03:46:07;101977.63;;;1.94;53.81
79006;BME280;69202;45.498;-73.582;2023-12-20T03:48:33;102021.38;;;2.16;54.67
79006;BME280;69202;45.498;-73.582;2023-12-20T03:50:59;102000.09;;;2.03;53.98
79006;BME280;69202;45.498;-73.582;2023-12-20T03:53:25;102019.56;;;2.16;54.82
79006;BME280;69202;45.498;-73.582;2023-12-20T03:55:51;102011.81;;;2.13;54.08
79006;BME280;69202;45.498;-73.582;2023-12-20T03:58:18;102011.50;;;2.05;53.72
79006;BME280;69202;45.498;-73.582;2023-12-20T04:00:44;102014.28;;;2.03;53.82
79006;BME280;69202;45.498;-73.582;2023-12-20T04:03:10;102009.84;;;1.91;52.79
79006;BME280;69202;45.498;-73.582;2023-12-20T04:05:40;102019.56;;;1.92;54.36
79006;BME280;69202;45.498;-73.582;2023-12-20T04:08:07;101994.41;;;1.84;54.32
79006;BME280;69202;45.498;-73.582;2023-12-20T04:10:33;102008.28;;;1.89;53.98
79006;BME280;69202;45.498;-73.582;2023-12-20T04:12:58;102019.97;;;1.99;56.05
79006;BME280;69202;45.498;-73.582;2023-12-20T04:15:24;102012.59;;;2.02;54.57
79006;BME280;69202;45.498;-73.582;2023-12-20T04:17:52;102001.75;;;1.93;54.11
79006;BME280;69202;45.498;-73.582;2023-12-20T04:20:18;101994.16;;;1.87;53.83
79006;BME280;69202;45.498;-73.582;2023-12-20T04:22:43;102026.16;;;2.23;62.97
79006;BME280;69202;45.498;-73.582;2023-12-20T04:25:09;102017.03;;;2.74;59.90
79006;BME280;69202;45.498;-73.582;2023-12-20T04:27:35;102018.59;;;2.65;58.20
79006;BME280;69202;45.498;-73.582;2023-12-20T04:30:01;102027.91;;;2.59;59.43
79006;BME280;69202;45.498;-73.582;2023-12-20T04:32:29;101999.78;;;2.67;59.00
79006;BME280;69202;45.498;-73.582;2023-12-20T04:34:55;102015.31;;;2.62;56.13
79006;BME280;69202;45.498;-73.582;2023-12-20T04:37:21;102013.03;;;2.44;54.52
79006;BME280;69202;45.498;-73.582;2023-12-20T04:39:47;102011.06;;;2.35;55.40
79006;BME280;69202;45.498;-73.582;2023-12-20T04:42:13;101986.88;;;2.25;57.28
79006;BME280;69202;45.498;-73.582;2023-12-20T04:44:39;102020.81;;;2.47;56.99
79006;BME280;69202;45.498;-73.582;2023-12-20T04:47:04;102017.47;;;2.56;59.48
79006;BME280;69202;45.498;-73.582;2023-12-20T04:49:30;102020.41;;;2.65;58.68
79006;BME280;69202;45.498;-73.582;2023-12-20T04:51:56;102019.56;;;2.64;58.88
79006;BME280;69202;45.498;-73.582;2023-12-20T04:54:22;102020.97;;;2.57;57.56
79006;BME280;69202;45.498;-73.582;2023-12-20T04:56:48;102036.09;;;2.45;55.14
79006;BME280;69202;45.498;-73.582;2023-12-20T04:59:14;102036.28;;;2.31;54.27
79006;BME280;69202;45.498;-73.582;2023-12-20T05:01:41;102045.41;;;2.16;53.68
79006;BME280;69202;45.498;-73.582;2023-12-20T05:04:07;102042.41;;;2.20;57.81
79006;BME280;69202;45.498;-73.582;2023-12-20T05:06:34;102026.09;;;2.12;56.12
79006;BME280;69202;45.498;-73.582;2023-12-20T05:09:00;102049.63;;;2.31;57.05
79006;BME280;69202;45.498;-73.582;2023-12-20T05:11:26;102041.25;;;2.36;56.78
79006;BME280;69202;45.498;-73.582;2023-12-20T05:13:52;102043.31;;;2.32;56.48
79006;BME280;69202;45.498;-73.582;2023-12-20T05:16:17;102041.50;;;2.33;56.56
79006;BME280;69202;45.498;-73.582;2023-12-20T05:18:45;102049.63;;;2.31;57.58
79006;BME280;69202;45.498;-73.582;2023-12-20T05:21:11;102044.50;;;2.52;61.13
79006;BME280;69202;45.498;-73.582;2023-12-20T05:23:37;102048.75;;;2.89;61.58
79006;BME280;69202;45.498;-73.582;2023-12-20T05:26:03;102047.47;;;2.95;61.00
79006;BME280;69202;45.498;-73.582;2023-12-20T05:28:28;102052.84;;;3.17;63.49
79006;BME280;69202;45.498;-73.582;2023-12-20T05:30:54;102066.22;;;3.17;61.56
79006;BME280;69202;45.498;-73.582;2023-12-20T05:33:22;102046.13;;;3.01;60.02
79006;BME280;69202;45.498;-73.582;2023-12-20T05:35:47;102074.22;;;3.17;60.98
79006;BME280;69202;45.498;-73.582;2023-12-20T05:38:13;102067.06;;;3.18;59.98
79006;BME280;69202;45.498;-73.582;2023-12-20T05:40:41;102067.50;;;3.12;58.95
79006;BME280;69202;45.498;-73.582;2023-12-20T05:43:06;102077.56;;;2.97;57.72
79006;BME280;69202;45.498;-73.582;2023-12-20T05:45:32;102078.16;;;2.89;57.24
79006;BME280;69202;45.498;-73.582;2023-12-20T05:48:01;102065.72;;;2.77;56.22
79006;BME280;69202;45.498;-73.582;2023-12-20T05:50:27;102066.09;;;2.73;56.67
79006;BME280;69202;45.498;-73.582;2023-12-20T05:52:53;102081.69;;;2.66;55.99
79006;BME280;69202;45.498;-73.582;2023-12-20T05:55:19;102068.38;;;2.42;53.94
79006;BME280;69202;45.498;-73.582;2023-12-20T05:57:45;102081.66;;;2.31;53.74
79006;BME280;69202;45.498;-73.582;2023-12-20T06:00:11;102074.75;;;2.16;54.10
79006;BME280;69202;45.498;-73.582;2023-12-20T06:02:37;102073.50;;;1.96;54.36
79006;BME280;69202;45.498;-73.582;2023-12-20T06:05:04;102096.88;;;2.05;54.16
79006;BME280;69202;45.498;-73.582;2023-12-20T06:07:30;102097.22;;;2.00;54.13
79006;BME280;69202;45.498;-73.582;2023-12-20T06:09:56;102102.72;;;1.97;54.40
79006;BME280;69202;45.498;-73.582;2023-12-20T06:12:22;102097.44;;;1.85;53.93
79006;BME280;69202;45.498;-73.582;2023-12-20T06:14:48;102099.91;;;1.75;53.91
79006;BME280;69202;45.498;-73.582;2023-12-20T06:17:14;102094.34;;;1.65;54.19
79006;BME280;69202;45.498;-73.582;2023-12-20T06:19:40;102099.91;;;1.62;54.63
79006;BME280;69202;45.498;-73.582;2023-12-20T06:22:08;102064.22;;;1.39;54.12
79006;BME280;69202;45.498;-73.582;2023-12-20T06:24:33;102086.06;;;1.57;54.37
79006;BME280;69202;45.498;-73.582;2023-12-20T06:26:59;102100.66;;;1.64;55.32
79006;BME280;69202;45.498;-73.582;2023-12-20T06:29:26;102109.09;;;1.71;56.06
79006;BME280;69202;45.498;-73.582;2023-12-20T06:31:52;102121.44;;;1.72;55.02
79006;BME280;69202;45.498;-73.582;2023-12-20T06:34:18;102114.50;;;1.82;58.04
79006;BME280;69202;45.498;-73.582;2023-12-20T06:36:44;102128.34;;;1.87;55.61
79006;BME280;69202;45.498;-73.582;2023-12-20T06:39:09;102129.97;;;1.77;54.80
79006;BME280;69202;45.498;-73.582;2023-12-20T06:41:38;102132.00;;;1.73;55.41
79006;BME280;69202;45.498;-73.582;2023-12-20T06:44:04;102137.34;;;1.73;55.50
79006;BME280;69202;45.498;-73.582;2023-12-20T06:46:30;102107.91;;;1.50;54.65
79006;BME280;69202;45.498;-73.582;2023-12-20T06:48:56;102145.13;;;1.64;54.10
79006;BME280;69202;45.498;-73.582;2023-12-20T06:51:22;102144.72;;;1.57;54.13
79006;BME280;69202;45.498;-73.582;2023-12-20T06:53:52;102147.56;;;1.54;53.89
79006;BME280;69202;45.498;-73.582;2023-12-20T06:56:18;102155.34;;;1.44;54.59
79006;BME280;69202;45.498;-73.582;2023-12-20T06:58:44;102159.50;;;1.49;54.85
79006;BME280;69202;45.498;-73.582;2023-12-20T07:01:16;102164.09;;;1.47;54.62
79006;BME280;69202;45.498;-73.582;2023-12-20T07:03:42;102159.06;;;1.42;55.32
79006;BME280;69202;45.498;-73.582;2023-12-20T07:06:08;102114.50;;;1.19;55.17
79006;BME280;69202;45.498;-73.582;2023-12-20T07:08:34;102161.63;;;1.43;55.14
79006;BME280;69202;45.498;-73.582;2023-12-20T07:11:00;102164.41;;;1.42;55.48
79006;BME280;69202;45.498;-73.582;2023-12-20T07:13:26;102163.31;;;1.44;55.46
79006;BME280;69202;45.498;-73.582;2023-12-20T07:15:52;102160.78;;;1.43;56.05
79006;BME280;69202;45.498;-73.582;2023-12-20T07:18:18;102157.38;;;1.41;56.09
79006;BME280;69202;45.498;-73.582;2023-12-20T07:20:45;102167.16;;;1.40;55.95
79006;BME280;69202;45.498;-73.582;2023-12-20T07:23:11;102174.94;;;1.43;55.91
79006;BME280;69202;45.498;-73.582;2023-12-20T07:25:36;102166.09;;;1.43;55.99
79006;BME280;69202;45.498;-73.582;2023-12-20T07:28:03;102176.66;;;1.44;56.40
79006;BME280;69202;45.498;-73.582;2023-12-20T07:30:28;102182.66;;;1.48;56.60
79006;BME280;69202;45.498;-73.582;2023-12-20T07:32:54;102182.84;;;1.45;56.50
79006;BME280;69202;45.498;-73.582;2023-12-20T07:35:20;102175.78;;;1.44;57.13
79006;BME280;69202;45.498;-73.582;2023-12-20T07:37:46;102174.53;;;1.75;60.33
79006;BME280;69202;45.498;-73.582;2023-12-20T07:40:13;102181.06;;;1.84;58.47
79006;BME280;69202;45.498;-73.582;2023-12-20T07:42:40;102167.28;;;1.77;58.12
79006;BME280;69202;45.498;-73.582;2023-12-20T07:45:06;102175.41;;;1.88;59.91
79006;BME280;69202;45.498;-73.582;2023-12-20T07:47:32;102168.47;;;2.11;59.90
79006;BME280;69202;45.498;-73.582;2023-12-20T07:49:58;102166.31;;;2.03;58.51
79006;BME280;69202;45.498;-73.582;2023-12-20T07:52:24;102161.41;;;1.97;57.94
79006;BME280;69202;45.498;-73.582;2023-12-20T07:54:51;102169.13;;;1.89;57.46
79006;BME280;69202;45.498;-73.582;2023-12-20T07:57:17;102144.19;;;1.78;57.68
79006;BME280;69202;45.498;-73.582;2023-12-20T07:59:43;102168.28;;;1.89;57.89
79006;BME280;69202;45.498;-73.582;2023-12-20T08:02:09;102157.81;;;1.98;58.80
79006;BME280;69202;45.498;-73.582;2023-12-20T08:04:35;102131.13;;;1.86;58.70
79006;BME280;69202;45.498;-73.582;2023-12-20T08:07:01;102158.28;;;2.29;60.49
79006;BME280;69202;45.498;-73.582;2023-12-20T08:09:27;102164.75;;;2.50;60.03
79006;BME280;69202;45.498;-73.582;2023-12-20T08:11:53;102147.47;;;2.43;59.35
79006;BME280;69202;45.498;-73.582;2023-12-20T08:14:19;102162.59;;;2.55;59.74
79006;BME280;69202;45.498;-73.582;2023-12-20T08:16:45;102149.22;;;2.92;63.08
79006;BME280;69202;45.498;-73.582;2023-12-20T08:19:11;102150.19;;;3.26;62.17
79006;BME280;69202;45.498;-73.582;2023-12-20T08:21:37;102141.22;;;3.38;62.55
79006;BME280;69202;45.498;-73.582;2023-12-20T08:24:03;102142.44;;;3.34;59.25
79006;BME280;69202;45.498;-73.582;2023-12-20T08:26:29;102117.25;;;2.90;59.07
79006;BME280;69202;45.498;-73.582;2023-12-20T08:28:55;102148.78;;;3.09;60.12
79006;BME280;69202;45.498;-73.582;2023-12-20T08:31:21;102155.59;;;3.13;58.90
79006;BME280;69202;45.498;-73.582;2023-12-20T08:33:48;102153.78;;;3.14;58.99
79006;BME280;69202;45.498;-73.582;2023-12-20T08:36:15;102147.69;;;3.12;59.22
79006;BME280;69202;45.498;-73.582;2023-12-20T08:38:43;102142.81;;;3.06;58.48
79006;BME280;69202;45.498;-73.582;2023-12-20T08:41:09;102145.59;;;3.04;58.48
79006;BME280;69202;45.498;-73.582;2023-12-20T08:43:35;102144.19;;;2.87;56.54
79006;BME280;69202;45.498;-73.582;2023-12-20T08:46:01;102144.56;;;2.70;56.01
79006;BME280;69202;45.498;-73.582;2023-12-20T08:48:28;102152.44;;;2.60;56.30
79006;BME280;69202;45.498;-73.582;2023-12-20T08:50:54;102143.16;;;2.53;56.16
79006;BME280;69202;45.498;-73.582;2023-12-20T08:53:20;102133.72;;;2.37;56.29
79006;BME280;69202;45.498;-73.582;2023-12-20T08:55:46;102149.72;;;2.37;56.32
79006;BME280;69202;45.498;-73.582;2023-12-20T08:58:13;102136.19;;;2.27;56.10
79006;BME280;69202;45.498;-73.582;2023-12-20T09:00:42;102113.94;;;2.02;55.77
79006;BME280;69202;45.498;-73.582;2023-12-20T09:03:09;102127.59;;;2.11;56.45
79006;BME280;69202;45.498;-73.582;2023-12-20T09:05:35;102143.72;;;2.09;56.73
79006;BME280;69202;45.498;-73.582;2023-12-20T09:08:01;102145.72;;;2.06;56.67
79006;BME280;69202;45.498;-73.582;2023-12-20T09:10:26;102152.34;;;2.13;58.37
79006;BME280;69202;45.498;-73.582;2023-12-20T09:12:53;102139.97;;;2.12;57.42
79006;BME280;69202;45.498;-73.582;2023-12-20T09:15:26;102141.91;;;2.10;57.43
79006;BME280;69202;45.498;-73.582;2023-12-20T09:17:53;102141.25;;;2.06;57.21
79006;BME280;69202;45.498;-73.582;2023-12-20T09:20:19;102145.94;;;2.02;57.50
79006;BME280;69202;45.498;-73.582;2023-12-20T09:22:45;102136.91;;;1.92;57.62
79006;BME280;69202;45.498;-73.582;2023-12-20T09:25:11;102151.59;;;1.98;57.54
79006;BME280;69202;45.498;-73.582;2023-12-20T09:27:38;102154.38;;;1.96;57.59
79006;BME280;69202;45.498;-73.582;2023-12-20T09:30:05;102147.34;;;1.95;57.48
79006;BME280;69202;45.498;-73.582;2023-12-20T09:32:31;102151.19;;;1.91;57.46
79006;BME280;69202;45.498;-73.582;2023-12-20T09:34:57;102154.81;;;1.90;57.89
79006;BME280;69202;45.498;-73.582;2023-12-20T09:37:26;102162.72;;;1.92;57.92
79006;BME280;69202;45.498;-73.582;2023-12-20T09:39:52;102158.34;;;1.91;57.94
79006;BME280;69202;45.498;-73.582;2023-12-20T09:42:51;102159.09;;;1.93;58.47
79006;BME280;69202;45.498;-73.582;2023-12-20T09:45:21;102132.00;;;1.73;57.96
79006;BME280;69202;45.498;-73.582;2023-12-20T09:47:52;102151.72;;;1.84;58.03
79006;BME280;69202;45.498;-73.582;2023-12-20T09:50:19;102155.25;;;1.84;57.80
79006;BME280;69202;45.498;-73.582;2023-12-20T09:52:49;102162.59;;;1.93;57.92
79006;BME280;69202;45.498;-73.582;2023-12-20T09:55:18;102153.53;;;1.96;58.39
79006;BME280;69202;45.498;-73.582;2023-12-20T09:57:45;102151.72;;;1.96;58.13
79006;BME280;69202;45.498;-73.582;2023-12-20T10:00:12;102157.81;;;1.98;58.06
79006;BME280;69202;45.498;-73.582;2023-12-20T10:02:54;102153.22;;;2.00;57.87
79006;BME280;69202;45.498;-73.582;2023-12-20T10:05:35;102156.75;;;2.01;58.03
79006;BME280;69202;45.498;-73.582;2023-12-20T10:08:01;102137.97;;;1.90;57.65
79006;BME280;69202;45.498;-73.582;2023-12-20T10:10:28;102154.69;;;2.05;58.51
79006;BME280;69202;45.498;-73.582;2023-12-20T10:13:12;102164.09;;;2.10;58.93
79006;BME280;69202;45.498;-73.582;2023-12-20T10:15:39;102156.09;;;2.10;58.48
79006;BME280;69202;45.498;-73.582;2023-12-20T10:18:06;102158.88;;;2.09;58.54
79006;BME280;69202;45.498;-73.582;2023-12-20T10:20:32;102148.41;;;2.06;58.62
79006;BME280;69202;45.498;-73.582;2023-12-20T10:22:59;102162.16;;;2.12;58.59
79006;BME280;69202;45.498;-73.582;2023-12-20T10:25:26;102155.97;;;2.12;58.17
79006;BME280;69202;45.498;-73.582;2023-12-20T10:28:11;102155.00;;;2.13;57.98
79006;BME280;69202;45.498;-73.582;2023-12-20T10:30:37;102127.31;;;1.90;57.98
79006;BME280;69202;45.498;-73.582;2023-12-20T10:33:05;102162.69;;;2.05;57.96
79006;BME280;69202;45.498;-73.582;2023-12-20T10:35:32;102173.38;;;2.05;57.82
79006;BME280;69202;45.498;-73.582;2023-12-20T10:37:59;102141.69;;;1.87;57.90
79006;BME280;69202;45.498;-73.582;2023-12-20T10:40:29;102183.19;;;2.04;57.76
79006;BME280;69202;45.498;-73.582;2023-12-20T10:42:56;102177.13;;;2.02;57.66
79006;BME280;69202;45.498;-73.582;2023-12-20T10:45:22;102174.56;;;2.00;58.07
79006;BME280;69202;45.498;-73.582;2023-12-20T10:47:50;102176.25;;;2.01;57.72
79006;BME280;69202;45.498;-73.582;2023-12-20T10:50:16;102179.78;;;2.02;57.82
79006;BME280;69202;45.498;-73.582;2023-12-20T10:52:42;102184.16;;;2.03;57.82
79006;BME280;69202;45.498;-73.582;2023-12-20T10:55:10;102192.88;;;2.05;58.27
79006;BME280;69202;45.498;-73.582;2023-12-20T10:57:36;102180.53;;;1.91;58.62
79006;BME280;69202;45.498;-73.582;2023-12-20T11:00:03;102200.66;;;2.08;58.48
79006;BME280;69202;45.498;-73.582;2023-12-20T11:02:32;102199.06;;;2.06;58.30
79006;BME280;69202;45.498;-73.582;2023-12-20T11:05:18;102210.41;;;2.09;58.22
79006;BME280;69202;45.498;-73.582;2023-12-20T11:07:54;102196.94;;;2.11;59.09
79006;BME280;69202;45.498;-73.582;2023-12-20T11:11:18;102191.72;;;2.09;58.47
79006;BME280;69202;45.498;-73.582;2023-12-20T11:13:21;102206.44;;;2.15;58.43
79006;BME280;69202;45.498;-73.582;2023-12-20T11:15:48;102210.81;;;2.16;58.66
79006;BME280;69202;45.498;-73.582;2023-12-20T11:18:15;102203.47;;;2.19;58.91
79006;BME280;69202;45.498;-73.582;2023-12-20T11:20:41;102210.91;;;2.27;59.54
79006;BME280;69202;45.498;-73.582;2023-12-20T11:23:08;102196.81;;;2.25;59.38
79006;BME280;69202;45.498;-73.582;2023-12-20T11:25:55;102201.38;;;2.36;59.57
79006;BME280;69202;45.498;-73.582;2023-12-20T11:28:23;102196.78;;;2.38;59.61
79006;BME280;69202;45.498;-73.582;2023-12-20T11:30:53;102198.19;;;2.43;59.57
79006;BME280;69202;45.498;-73.582;2023-12-20T11:33:30;102208.31;;;2.51;59.20
79006;BME280;69202;45.498;-73.582;2023-12-20T11:35:57;102205.34;;;2.43;58.77
79006;BME280;69202;45.498;-73.582;2023-12-20T11:38:25;102212.88;;;2.49;59.19
79006;BME280;69202;45.498;-73.582;2023-12-20T11:40:53;102199.34;;;2.39;58.98
79006;BME280;69202;45.498;-73.582;2023-12-20T11:43:35;102207.56;;;2.49;58.85
79006;BME280;69202;45.498;-73.582;2023-12-20T11:46:05;102216.31;;;2.51;58.95
79006;BME280;69202;45.498;-73.582;2023-12-20T11:48:32;102218.03;;;2.52;58.88
79006;BME280;69202;45.498;-73.582;2023-12-20T11:50:58;102218.22;;;2.49;58.78
79006;BME280;69202;45.498;-73.582;2023-12-20T11:53:24;102223.69;;;2.47;58.26
79006;BME280;69202;45.498;-73.582;2023-12-20T11:55:50;102220.03;;;2.48;58.67
79006;BME280;69202;45.498;-73.582;2023-12-20T11:58:16;102229.75;;;2.49;58.52
79006;BME280;69202;45.498;-73.582;2023-12-20T12:00:44;102225.81;;;2.55;58.74
79006;BME280;69202;45.498;-73.582;2023-12-20T12:03:10;102212.25;;;2.45;58.47
79006;BME280;69202;45.498;-73.582;2023-12-20T12:05:36;102231.38;;;2.52;57.92
79006;BME280;69202;45.498;-73.582;2023-12-20T12:08:02;102224.75;;;2.45;57.77
79006;BME280;69202;45.498;-73.582;2023-12-20T12:10:31;102208.22;;;2.27;58.00
79006;BME280;69202;45.498;-73.582;2023-12-20T12:12:58;102241.75;;;2.44;57.94
79006;BME280;69202;45.498;-73.582;2023-12-20T12:15:25;102211.34;;;2.21;57.73
79006;BME280;69202;45.498;-73.582;2023-12-20T12:17:56;102229.16;;;2.33;57.64
79006;BME280;69202;45.498;-73.582;2023-12-20T12:20:23;102228.06;;;2.36;57.61
79006;BME280;69202;45.498;-73.582;2023-12-20T12:22:59;102232.44;;;2.37;57.79
79006;BME280;69202;45.498;-73.582;2023-12-20T12:25:26;102235.22;;;2.35;57.82
79006;BME280;69202;45.498;-73.582;2023-12-20T12:27:52;102195.66;;;2.16;57.75
79006;BME280;69202;45.498;-73.582;2023-12-20T12:30:18;102242.06;;;2.39;57.55
79006;BME280;69202;45.498;-73.582;2023-12-20T12:32:45;102247.31;;;2.41;57.63
79006;BME280;69202;45.498;-73.582;2023-12-20T12:35:11;102243.78;;;2.40;57.17
79006;BME280;69202;45.498;-73.582;2023-12-20T12:37:40;102246.75;;;2.48;57.51
79006;BME280;69202;45.498;-73.582;2023-12-20T12:40:13;102251.75;;;2.53;58.21